Terminal Aerodrome Forecast
Issued by NWS

Home | Current Version | Previous Version | Text Only | Print | Product List | Glossary On
Versions: 1 2 3 4 5 6 7 8 9 10 11 12 13 14 15 16 17 18 19 20 21
000
FTUS45 KBOU 161734
TAFAPA
TAF
KAPA 161734Z 1618/1718 01012G20KT P6SM FEW080 SCT140 SCT200
     FM162000 03012KT P6SM SCT080 BKN120
     FM162200 07012KT P6SM VCSH SCT040 BKN080
     FM170200 10008KT P6SM VCSH SCT040 OVC080
     FM170600 15007KT P6SM SCT050 BKN080 OVC120
     FM170800 20008KT P6SM FEW060 SCT080 BKN120
     FM171500 19007KT P6SM FEW080 SCT140=

USA.gov is the U.S. government's official web portal to all federal, state and local government web resources and services.